Tiempo atmosférico en la estación meteorológica de La Pobla de Benifassà-Fredes, Castelló/Castellón (1174 m.)



Fecha
DESCASC
Temp. máxima en grados centígrados (hora)
DESCASC
Temp. mínima en grados centígrados (hora)
DESCASC
Temp. media en grados centígrados
DESCASC
Racha de viento máxima en m/sg (hora)
DESCASC
Velocidad máxima media en intervalos de 10 minutos(hora)
DESCASC
Precipitaciones diarias en mm
DESCASC
Precipitaciones de 00:00 a 06:00 en mm
DESCASC
Precipitaciones de 06:00 a 12:00 en mm
DESCASC
Precipitaciones de 12:00 a 18:00 en mm
DESCASC
Precipitaciones de 18:00 a 24:00 en mm
DESCASC
22-01-2020 -- (--) -- (--) -- 8.89 (16:00) 5 (20:30) 8.8 0.4 1.2 0.4 6.8
21-01-2020 -- (--) -- (--) -- 28.89 (12:00) 14.44 (17:00) 144.2 0 54.2 59.6 30.4
20-01-2020 -- (--) -- (--) -- 12.5 (20:20) 7.5 (04:30) 0 0 0 0 0
19-01-2020 -- (--) -- (--) -- 13.61 (05:10) 7.78 (05:00) 3.4 1.6 0 1.6 0.2
18-01-2020 -- (--) -- (--) -- 13.06 (00:10) 6.94 (00:10) 0 0 0 0 0
17-01-2020 -- (--) -- (--) -- -- (--) -- (--) -- -- -- -- 0
16-01-2020 -- (--) -- (--) -- -- (--) -- (--) -- 0 -- -- --
15-01-2020 -- (--) -- (--) -- 9.17 (08:00) 5.56 (08:20) 0 0 0 0 0
14-01-2020 -- (--) -- (--) -- 5.83 (04:30) 3.89 (05:50) -- 0 0 -- 0
13-01-2020 -- (--) -- (--) -- 7.22 (04:10) 5 (06:00) 0 0 0 0 0
12-01-2020 -- (--) -- (--) -- -- (--) -- (--) -- 0 -- 0 0
11-01-2020 -- (--) -- (--) -- 13.33 (03:50) 8.33 (05:10) 0 0 0 0 0
10-01-2020 -- (--) -- (--) -- 22.22 (10:00) 13.61 (08:20) 1 0.2 0.8 0 0
09-01-2020 -- (--) -- (--) -- 7.5 (23:30) 3.89 (23:30) 0 0 0 0 0
08-01-2020 -- (--) -- (--) -- -- (--) -- (--) -- 0 0 0 --
07-01-2020 -- (--) -- (--) -- -- (--) -- (--) -- -- 0 0 0
06-01-2020 -- (--) -- (--) -- 11.94 (23:30) 5.83 (23:30) 0 0 0 0 0
05-01-2020 -- (--) -- (--) -- -- (--) -- (--) -- 0 -- -- --
04-01-2020 -- (--) -- (--) -- 19.72 (05:40) 12.5 (00:20) 0 0 0 0 0
03-01-2020 -- (--) -- (--) -- 21.11 (23:20) 13.61 (23:59) 0 0 0 0 0
02-01-2020 -- (--) -- (--) -- 6.67 (00:10) 4.72 (00:10) 0 0 0 0 0
01-01-2020 -- (--) -- (--) -- 10.28 (11:20) 6.67 (02:10) 0 0 0 0 0
31-12-2019 -- (--) -- (--) -- 10 (19:50) 6.11 (19:50) 0 0 0 0 0
30-12-2019 -- (--) -- (--) -- -- (--) -- (--) -- 0 0 -- 0
29-12-2019 -- (--) -- (--) -- 8.61 (20:30) 5.83 (20:30) 0 0 0 0 0
28-12-2019 -- (--) -- (--) -- 14.44 (00:40) 8.33 (00:30) 0 0 0 0 0
27-12-2019 -- (--) -- (--) -- -- (--) -- (--) -- -- -- 0 0
26-12-2019 -- (--) -- (--) -- -- (--) -- (--) -- -- -- -- --
25-12-2019 -- (--) -- (--) -- -- (--) -- (--) -- -- -- -- --

Gráficas

Temp. máximas Temp. mínimas Temp. medias Precipitaciones Rachas de viento máximas Velocidades máximas media en intervalos de 10 minutos

Datos horarios

Fecha y hora oficial Temperatura (ºC) Velocidad del viento (km/h) Dirección del viento Racha (km/h) Dirección de racha Precipitación (mm) Presión (hPa) Tendencia (hPa) Humedad (%)
2020-01-23 23:00:00 2.3 2 Sudeste 10 Este 0 -- -- 97
2020-01-23 22:00:00 2.3 2 Sudeste 9 Este 0 -- -- 97
2020-01-23 21:00:00 2.5 4 Este 12 Este 0 -- -- 97
2020-01-23 20:00:00 2.6 4 Sudeste 14 Sur 0 -- -- 97
2020-01-23 19:00:00 2.6 2 Sur 12 Este 0 -- -- 97
2020-01-23 18:00:00 2.8 3 Este 17 Este 0 -- -- 96
2020-01-23 17:00:00 3 4 Sudeste 15 Sudeste 0 -- -- 96
2020-01-23 16:00:00 3.2 5 Sudeste 15 Este 0 -- -- 96
2020-01-23 15:00:00 3.3 4 Sudeste 16 Este 0 -- -- 96
2020-01-23 14:00:00 3.3 7 Este 21 Este 0 -- -- 94
2020-01-23 13:00:00 3.9 9 Este 17 Este 0 -- -- 91
2020-01-23 12:00:00 4.9 6 Este 14 Este 0.4 -- -- 90
2020-01-23 11:00:00 3.5 4 Oeste 8 Oeste 1.8 -- -- 94
2020-01-23 10:00:00 2.8 3 Sur 12 Sudeste 1.2 -- -- 97
2020-01-23 09:00:00 0.9 8 Oeste 14 Oeste 0 -- -- 97
2020-01-23 08:00:00 0 10 Oeste 16 Oeste 0 -- -- 97
2020-01-23 07:00:00 0.1 9 Oeste 23 Oeste 0.2 -- -- 97
2020-01-23 06:00:00 0.3 16 Oeste 28 Oeste 0 -- -- 97
2020-01-23 05:00:00 0.2 19 Oeste 31 Oeste 0.2 -- -- 97
2020-01-23 04:00:00 0.2 17 Oeste 28 Noroeste 0.2 -- -- 97
2020-01-23 03:00:00 0.2 16 Oeste 22 Oeste 1 -- -- 97
2020-01-23 02:00:00 0.2 15 Oeste 26 Oeste 1 -- -- 97
2020-01-23 01:00:00 0.3 9 Oeste 19 Oeste 2 -- -- 97
2020-01-23 00:00:00 0.1 9 Oeste 22 Oeste 2.4 -- -- 96
2020-01-22 23:00:00 0.2 13 Oeste 23 Oeste 2 -- -- 97
2020-01-22 22:00:00 0.4 12 Oeste 21 Noroeste 2 -- -- 97
2020-01-22 21:00:00 0.3 11 Oeste 27 Oeste 0.4 -- -- 96
2020-01-22 20:00:00 0.4 12 Oeste 19 Oeste 0 -- -- 96
2020-01-22 19:00:00 0.3 7 Oeste 11 Oeste 0 -- -- 96
2020-01-22 18:00:00 1 4 Oeste 14 Oeste 0 -- -- 96
2020-01-22 17:00:00 1.7 4 Oeste 25 Sudeste 0.4 -- -- 96
2020-01-22 16:00:00 4.1 13 Este 32 Este 0 -- -- 96
2020-01-22 15:00:00 4.7 9 Este 26 Este 0 -- -- 96
2020-01-22 14:00:00 4.7 9 Nordeste 17 Nordeste 0 -- -- 96
2020-01-22 13:00:00 4.4 6 Este 18 Este 0 -- -- 96
2020-01-22 12:00:00 4.8 6 Nordeste 15 Este 0 -- -- 97
2020-01-22 11:00:00 4.5 5 Este 15 Este 0 -- -- 97
2020-01-22 10:00:00 3.6 6 Este 19 Este 0 -- -- 97
2020-01-22 09:00:00 3.2 12 Este 25 Este 0 -- -- 97
2020-01-22 08:00:00 3.3 12 Nordeste 24 Este 1.2 -- -- 97
2020-01-22 07:00:00 1.6 3 Nordeste 18 Nordeste 0 -- -- 96
2020-01-22 06:00:00 3.1 8 Nordeste 18 Nordeste 0 -- -- 97
2020-01-22 05:00:00 2.7 6 Nordeste 15 Nordeste 0 -- -- 96
2020-01-22 04:00:00 2.8 7 Nordeste 25 Nordeste 0 -- -- 96
2020-01-22 03:00:00 2.8 10 Nordeste 23 Nordeste 0 -- -- 97
2020-01-22 02:00:00 2.8 15 Nordeste 25 Este 0 -- -- 96
2020-01-22 01:00:00 2.9 11 Este 26 Este 0.4 -- -- 96
2020-01-22 00:00:00 2.8 11 Este 30 Este 0.8 -- -- 96
2020-01-21 23:00:00 2.8 13 Este 36 Este 1 -- -- 96
2020-01-21 22:00:00 2.5 13 Este 42 Este 3 -- -- 96
2020-01-21 21:00:00 2.4 11 Este 31 Nordeste 6.8 -- -- 96
2020-01-21 20:00:00 2.3 20 Nordeste 43 Este 8.4 -- -- 96
2020-01-21 19:00:00 2.3 18 Nordeste 48 Este 10.4 -- -- 97
2020-01-21 18:00:00 1.3 22 Este 85 Este 6.6 -- -- 97
2020-01-21 17:00:00 4.7 52 Este 99 Este 15.8 -- -- 96
2020-01-21 16:00:00 4.5 46 Este 99 Este 11.8 -- -- 96
2020-01-21 15:00:00 4.6 39 Este 100 Este 6.2 -- -- 96
2020-01-21 14:00:00 4.8 36 Este 93 Nordeste 3.8 -- -- 96
2020-01-21 13:00:00 4.9 44 Este 100 Este 15.4 -- -- 96
2020-01-21 12:00:00 4.9 35 Este 104 Este 20.2 -- -- 96
2020-01-21 11:00:00 2.8 21 Nordeste 51 Nordeste 11.6 -- -- 96
2020-01-21 10:00:00 2.7 24 Nordeste 62 Sudeste 14.6 -- -- 96
2020-01-21 09:00:00 2.8 26 Nordeste 68 Nordeste 7.2 -- -- 96
2020-01-21 08:00:00 2.4 17 Nordeste 60 Este 0.6 -- -- 96
2020-01-21 07:00:00 1.4 17 Nordeste 36 Nordeste 0 -- -- 96
2020-01-21 06:00:00 -1 0 Calma 0 Calma 0 -- -- 96
2020-01-21 05:00:00 -2.8 0 Calma -- -- 0 -- -- 95
2020-01-21 04:00:00 -1.5 0 Calma -- -- 0 -- -- 95
2020-01-21 03:00:00 -1.5 0 Calma -- -- 0 -- -- 95
2020-01-21 02:00:00 -0.9 0 Calma -- -- 0 -- -- 95
2020-01-21 01:00:00 -0.3 0 Calma 40 Nordeste 0 -- -- 96
2020-01-21 00:00:00 0 0 Calma 26 Nordeste 0 -- -- 95
2020-01-20 23:00:00 -0.2 0 Calma 0 Calma 0 -- -- 96
2020-01-20 22:00:00 -0.2 0 Calma 36 Norte 0 -- -- 96
2020-01-20 21:00:00 -0.2 5 Norte 45 Norte 0 -- -- 95
2020-01-20 20:00:00 -0.5 13 Norte 34 Nordeste 0 -- -- 95
2020-01-20 19:00:00 -0.9 11 Norte 37 Nordeste 0 -- -- 95
2020-01-20 18:00:00 -2.4 11 Noroeste 32 Noroeste 0 -- -- 94
2020-01-20 17:00:00 -3.1 10 Noroeste 24 Oeste 0 -- -- 94
2020-01-20 16:00:00 -3.6 12 Oeste 27 Noroeste 0 -- -- 93
2020-01-20 15:00:00 -4 13 Oeste 29 Oeste 0 -- -- 92
2020-01-20 14:00:00 -4.2 14 Oeste 29 Oeste 0 -- -- 93
2020-01-20 13:00:00 -4.2 13 Oeste 27 Oeste 0 -- -- 92
2020-01-20 12:00:00 -4.1 13 Oeste 31 Noroeste 0 -- -- 92
2020-01-20 11:00:00 -4.3 15 Oeste 29 Noroeste 0 -- -- 93
2020-01-20 10:00:00 -4.3 12 Noroeste 28 Noroeste 0 -- -- 92
2020-01-20 09:00:00 -4.7 14 Noroeste 30 Noroeste 0 -- -- 92
2020-01-20 08:00:00 -4.9 17 Noroeste 36 Oeste 0 -- -- 92
2020-01-20 07:00:00 -4.9 18 Noroeste 42 Noroeste 0 -- -- 92
2020-01-20 06:00:00 -4.9 21 Noroeste 36 Noroeste 0 -- -- 92
2020-01-20 05:00:00 -4.8 21 Noroeste 43 Noroeste 0 -- -- 92
2020-01-20 04:00:00 -4.4 20 Noroeste 36 Noroeste 0 -- -- 91
2020-01-20 03:00:00 -3.9 20 Noroeste 35 Noroeste 0 -- -- 91
2020-01-20 02:00:00 -3.5 10 Oeste 23 Oeste 0 -- -- 91
2020-01-20 01:00:00 -3.2 15 Oeste 32 Oeste 0 -- -- 90
2020-01-20 00:00:00 -3 19 Oeste 31 Oeste 0 -- -- 90
2020-01-19 23:00:00 -2.5 21 Oeste 32 Oeste 0 -- -- 90
2020-01-19 22:00:00 -2.4 15 Oeste 23 Oeste 0 -- -- 91
2020-01-19 21:00:00 -2 13 Oeste 22 Oeste 0 -- -- 91
2020-01-19 20:00:00 -1.1 13 Oeste 25 Noroeste 0.2 -- -- 93
2020-01-19 19:00:00 -0.5 14 Oeste 25 Oeste 0 -- -- 94
2020-01-19 18:00:00 -0.3 15 Oeste 28 Oeste 0.6 -- -- 94
2020-01-19 17:00:00 -0.1 18 Oeste 34 Noroeste 0.4 -- -- 94
2020-01-19 16:00:00 0.1 14 Noroeste 29 Noroeste 0.4 -- -- 93
2020-01-19 15:00:00 0.1 16 Noroeste 28 Noroeste 0.2 -- -- 93
2020-01-19 14:00:00 0.1 0 Calma -- -- 0 -- -- 92
2020-01-19 13:00:00 -0.4 0 Calma -- -- 0 -- -- 92
2020-01-19 12:00:00 -0.2 0 Calma -- -- 0 -- -- 92
2020-01-19 11:00:00 -0.3 0 Calma 17 Oeste 0 -- -- 93
2020-01-19 10:00:00 -0.4 11 Oeste 26 Oeste 0 -- -- 93
2020-01-19 09:00:00 -0.4 18 Oeste 32 Oeste 0 -- -- 94
2020-01-19 08:00:00 -0.3 19 Oeste 34 Oeste 0 -- -- 94
2020-01-19 07:00:00 -0.2 21 Oeste 37 Oeste 0 -- -- 94
2020-01-19 06:00:00 -0.1 23 Oeste 49 Oeste 0 -- -- 93
2020-01-19 05:00:00 0.2 28 Oeste 47 Oeste 0.2 -- -- 93
2020-01-19 04:00:00 1.3 23 Oeste 39 Oeste 0.4 -- -- 91
2020-01-19 03:00:00 2.1 22 Oeste 41 Noroeste 0.2 -- -- 92
2020-01-19 02:00:00 2.8 19 Oeste 37 Oeste 0.8 -- -- 90
2020-01-19 01:00:00 3.7 24 Oeste 45 Oeste 0 -- -- 84
2020-01-19 00:00:00 4.8 3 Sudeste 7 Sur 0 -- -- 79
2020-01-18 23:00:00 4.3 3 Sudoeste 7 Oeste 0 -- -- 80
2020-01-18 22:00:00 5.8 3 Noroeste 14 Oeste 0 -- -- 74
2020-01-18 21:00:00 6.1 5 Oeste 12 Sur 0 -- -- 73
2020-01-18 20:00:00 6.2 6 Sur 13 Sur 0 -- -- 71
2020-01-18 19:00:00 5 4 Sudeste 11 Sudeste 0 -- -- 78
2020-01-18 18:00:00 5.2 0 Calma 5 Este 0 -- -- 85
2020-01-18 17:00:00 5.3 4 Este 12 Este 0 -- -- 86
2020-01-18 16:00:00 6.4 6 Este 14 Este 0 -- -- 78
2020-01-18 15:00:00 7.7 6 Este 13 Este 0 -- -- 69
2020-01-18 14:00:00 7.2 6 Este 14 Este 0 -- -- 65
2020-01-18 13:00:00 6.1 5 Este 15 Este 0 -- -- 58
2020-01-18 12:00:00 6.2 8 Este 17 Este 0 -- -- 57
2020-01-18 11:00:00 5.1 3 Sudeste 10 Este 0 -- -- 57
2020-01-18 10:00:00 3.7 4 Sudeste 14 Sudeste 0 -- -- 63
2020-01-18 09:00:00 2.3 6 Oeste 26 Oeste 0 -- -- 69
2020-01-18 08:00:00 2.3 14 Oeste 24 Oeste 0 -- -- 68
2020-01-18 07:00:00 2 9 Oeste 15 Oeste 0 -- -- 66
2020-01-18 06:00:00 1.9 7 Oeste 18 Oeste 0 -- -- 66
2020-01-18 05:00:00 1.8 14 Oeste 25 Oeste 0 -- -- 71
2020-01-18 04:00:00 1.5 15 Oeste 29 Noroeste 0 -- -- 76
2020-01-18 03:00:00 0.9 21 Oeste 34 Oeste 0 -- -- 78
2020-01-18 02:00:00 0.7 20 Oeste 42 Noroeste 0 -- -- 79
2020-01-18 01:00:00 1 21 Noroeste 47 Noroeste 0 -- -- 78
2020-01-18 00:00:00 1.3 26 Noroeste 47 Oeste 0 -- -- 78
2020-01-17 23:00:00 1.7 32 Noroeste 62 Noroeste 0 -- -- 79
2020-01-17 22:00:00 2.1 35 Noroeste 71 Noroeste 0 -- -- 78
2020-01-17 21:00:00 2.5 36 Noroeste 77 Noroeste 0 -- -- 78
2020-01-17 20:00:00 3 41 Noroeste 79 Oeste 0 -- -- 76
2020-01-17 19:00:00 4.2 36 Noroeste 74 Oeste 0 -- -- 74
2020-01-17 18:00:00 5.7 44 Oeste 78 Oeste 0 -- -- 53
2020-01-17 17:00:00 6.6 38 Oeste -- -- -- -- -- 55
2020-01-17 16:00:00 -- -- -- -- -- -- -- -- --
2020-01-17 15:00:00 -- -- -- -- -- -- -- -- --
2020-01-17 14:00:00 -- -- -- -- -- -- -- -- --
2020-01-17 13:00:00 -- -- -- -- -- -- -- -- --
2020-01-17 12:00:00 -- -- -- -- -- -- -- -- --
2020-01-17 11:00:00 -- -- -- -- -- -- -- -- --
2020-01-17 10:00:00 -- -- -- -- -- -- -- -- --
2020-01-17 09:00:00 -- -- -- -- -- -- -- -- --
2020-01-17 08:00:00 -- -- -- -- -- -- -- -- --
2020-01-17 07:00:00 -- -- -- -- -- -- -- -- --
2020-01-17 06:00:00 -- -- -- -- -- -- -- -- --
2020-01-17 05:00:00 -- -- -- -- -- -- -- -- --
2020-01-17 04:00:00 -- -- -- -- -- -- -- -- --
2020-01-17 03:00:00 -- -- -- -- -- -- -- -- --
2020-01-17 02:00:00 -- -- -- -- -- -- -- -- --
2020-01-17 01:00:00 -- -- -- -- -- -- -- -- --
2020-01-17 00:00:00 -- -- -- -- -- -- -- -- --
2020-01-16 23:00:00 -- -- -- -- -- -- -- -- --
2020-01-16 22:00:00 -- -- -- -- -- -- -- -- --
2020-01-16 21:00:00 -- -- -- -- -- -- -- -- --
2020-01-16 20:00:00 -- -- -- -- -- -- -- -- --
2020-01-16 19:00:00 -- -- -- -- -- -- -- -- --
2020-01-16 18:00:00 -- -- -- -- -- -- -- -- --
2020-01-16 17:00:00 -- -- -- -- -- -- -- -- --
2020-01-16 16:00:00 -- -- -- -- -- -- -- -- --
2020-01-16 15:00:00 -- -- -- -- -- -- -- -- --
2020-01-16 14:00:00 -- -- -- -- -- -- -- -- --
2020-01-16 13:00:00 -- -- -- -- -- -- -- -- --
2020-01-16 12:00:00 -- -- -- -- -- -- -- -- --
2020-01-16 11:00:00 -- -- -- -- -- -- -- -- --
2020-01-16 10:00:00 -- -- -- -- -- -- -- -- --
2020-01-16 09:00:00 -- -- -- -- -- -- -- -- --
2020-01-16 08:00:00 -- 2 Sur 6 Oeste 0 -- -- --
2020-01-16 07:00:00 -- 5 Noroeste 12 Oeste 0 -- -- --
2020-01-16 06:00:00 -- 9 Oeste 13 Oeste 0 -- -- --
2020-01-16 05:00:00 -- 10 Oeste 16 Oeste 0 -- -- --
2020-01-16 04:00:00 -- 13 Oeste 25 Oeste 0 -- -- --
2020-01-16 03:00:00 -- 16 Oeste 25 Oeste 0 -- -- --
2020-01-16 02:00:00 -- 11 Oeste 22 Oeste 0 -- -- --
2020-01-16 01:00:00 -- 8 Oeste 15 Oeste 0 -- -- --
2020-01-16 00:00:00 -- 10 Oeste 20 Oeste 0 -- -- --
2020-01-15 23:00:00 -- 13 Oeste 21 Oeste 0 -- -- --
2020-01-15 22:00:00 -- 9 Oeste 18 Oeste 0 -- -- --
2020-01-15 21:00:00 -- 8 Oeste 14 Oeste 0 -- -- --
2020-01-15 20:00:00 -- 8 Oeste 15 Oeste 0 -- -- --
2020-01-15 19:00:00 -- 8 Oeste 15 Oeste 0 -- -- --
2020-01-15 18:00:00 -- 4 Oeste 18 Oeste 0 -- -- --
2020-01-15 17:00:00 -- 8 Oeste 29 Oeste 0 -- -- --
2020-01-15 16:00:00 -- 13 Oeste 26 Oeste 0 -- -- --
2020-01-15 15:00:00 -- 13 Oeste 32 Oeste 0 -- -- --
2020-01-15 14:00:00 -- 13 Oeste 32 Oeste 0 -- -- --
2020-01-15 13:00:00 -11.6 13 Oeste 30 Oeste 0 -- -- --
2020-01-15 12:00:00 -1.6 15 Oeste 31 Oeste 0 -- -- --
2020-01-15 11:00:00 -0.7 14 Oeste 29 Oeste 0 -- -- --
2020-01-15 10:00:00 -- 12 Oeste 29 Oeste 0 -- -- --
2020-01-15 09:00:00 -- 14 Oeste 29 Oeste 0 -- -- --
2020-01-15 08:00:00 -- 19 Oeste 33 Oeste 0 -- -- --
2020-01-15 07:00:00 -- 16 Oeste 27 Oeste 0 -- -- --
2020-01-15 06:00:00 -- 17 Oeste 28 Sudoeste 0 -- -- --
2020-01-15 05:00:00 -- 15 Oeste 26 Oeste 0 -- -- --
2020-01-15 04:00:00 -- 16 Oeste 24 Oeste 0 -- -- --
2020-01-15 03:00:00 -- 15 Oeste 21 Oeste 0 -- -- --
2020-01-15 02:00:00 -- 6 Oeste 15 Oeste 0 -- -- --
2020-01-15 01:00:00 -- -- -- -- -- -- -- -- --
2020-01-15 00:00:00 -- -- -- -- -- -- -- -- --
2020-01-14 23:00:00 -- -- -- -- -- -- -- -- --
2020-01-14 22:00:00 -- -- -- -- -- -- -- -- --
2020-01-14 21:00:00 -- -- -- -- -- -- -- -- --
2020-01-14 20:00:00 -- -- -- -- -- -- -- -- --
2020-01-14 19:00:00 -- -- -- -- -- -- -- -- --
2020-01-14 18:00:00 -- -- -- -- -- -- -- -- --
2020-01-14 17:00:00 -- -- -- -- -- -- -- -- --
2020-01-14 16:00:00 -- -- -- -- -- -- -- -- --
2020-01-14 15:00:00 -- -- -- -- -- -- -- -- --
2020-01-14 14:00:00 -- -- -- -- -- -- -- -- --
2020-01-14 13:00:00 -- -- -- -- -- -- -- -- --
2020-01-14 12:00:00 -- -- -- -- -- -- -- -- --
2020-01-14 11:00:00 -- -- -- -- -- -- -- -- --
2020-01-14 10:00:00 -- -- -- -- -- -- -- -- --
2020-01-14 09:00:00 -- -- -- -- -- -- -- -- --
2020-01-14 08:00:00 -- -- -- -- -- -- -- -- --
2020-01-14 07:00:00 -- -- -- -- -- -- -- -- --
2020-01-14 06:00:00 -- -- -- -- -- -- -- -- --
2020-01-14 05:00:00 -- -- -- -- -- -- -- -- --
2020-01-14 04:00:00 -- -- -- -- -- -- -- -- --
2020-01-14 03:00:00 -- -- -- -- -- -- -- -- --
2020-01-14 02:00:00 -- -- -- -- -- -- -- -- --
2020-01-14 01:00:00 -- -- -- -- -- -- -- -- --
2020-01-14 00:00:00 -- -- -- -- -- -- -- -- --
2020-01-13 23:00:00 -- -- -- -- -- -- -- -- --
2020-01-13 22:00:00 -- -- -- -- -- -- -- -- --
2020-01-13 21:00:00 -- -- -- -- -- -- -- -- --
2020-01-13 20:00:00 -- -- -- -- -- -- -- -- --
2020-01-13 19:00:00 -- -- -- -- -- -- -- -- --
2020-01-13 18:00:00 -- -- -- -- -- -- -- -- --
2020-01-13 17:00:00 -- -- -- -- -- -- -- -- --
2020-01-13 16:00:00 -- -- -- -- -- -- -- -- --
2020-01-13 15:00:00 -- -- -- -- -- -- -- -- --
2020-01-13 14:00:00 -- -- -- -- -- -- -- -- --
2020-01-13 13:00:00 -- -- -- -- -- -- -- -- --
2020-01-13 12:00:00 -- -- -- -- -- -- -- -- --
2020-01-13 11:00:00 -- -- -- -- -- -- -- -- --
2020-01-13 10:00:00 -- -- -- -- -- -- -- -- --
2020-01-13 09:00:00 -- -- -- -- -- -- -- -- --
2020-01-13 08:00:00 -- -- -- -- -- -- -- -- --
2020-01-13 07:00:00 -- -- -- -- -- -- -- -- --
2020-01-13 06:00:00 -- -- -- -- -- -- -- -- --
2020-01-13 05:00:00 -- -- -- -- -- -- -- -- --
2020-01-13 04:00:00 -- -- -- -- -- -- -- -- --
2020-01-13 03:00:00 -- -- -- -- -- -- -- -- --
2020-01-13 02:00:00 -- -- -- -- -- -- -- -- --
2020-01-13 01:00:00 -- -- -- -- -- -- -- -- --
2020-01-13 00:00:00 -- -- -- -- -- -- -- -- --
2020-01-12 23:00:00 -- -- -- -- -- -- -- -- --
2020-01-12 22:00:00 -- -- -- -- -- -- -- -- --
2020-01-12 21:00:00 -- -- -- -- -- -- -- -- --
2020-01-12 20:00:00 -- -- -- -- -- -- -- -- --
2020-01-12 19:00:00 -- -- -- -- -- -- -- -- --
2020-01-12 18:00:00 -- -- -- -- -- -- -- -- --
2020-01-12 17:00:00 -- -- -- -- -- -- -- -- --
2020-01-12 16:00:00 -- -- -- -- -- -- -- -- --
2020-01-12 15:00:00 -- -- -- -- -- -- -- -- --
2020-01-12 14:00:00 -- -- -- -- -- -- -- -- --
2020-01-12 13:00:00 -- -- -- -- -- -- -- -- --
2020-01-12 12:00:00 -- -- -- -- -- -- -- -- --
2020-01-12 11:00:00 -- -- -- -- -- -- -- -- --
2020-01-12 10:00:00 -- -- -- -- -- -- -- -- --
2020-01-12 09:00:00 -- -- -- -- -- -- -- -- --
2020-01-12 08:00:00 -- 27 Oeste 40 Oeste 0 -- -- --
2020-01-12 07:00:00 -- 23 Oeste 35 Oeste 0 -- -- --
2020-01-12 06:00:00 -- 21 Oeste 29 Oeste 0 -- -- --
2020-01-12 05:00:00 -- 21 Oeste 30 Oeste 0 -- -- --
2020-01-12 04:00:00 -- 21 Oeste 33 Oeste 0 -- -- --
2020-01-12 03:00:00 -- 22 Oeste 33 Oeste 0 -- -- --
2020-01-12 02:00:00 -- 24 Oeste 34 Noroeste 0 -- -- --
2020-01-12 01:00:00 -- 22 Oeste 34 Oeste 0 -- -- --
2020-01-12 00:00:00 -- 21 Oeste 30 Oeste 0 -- -- --
2020-01-11 23:00:00 -- 19 Oeste 28 Oeste 0 -- -- --
2020-01-11 22:00:00 -- 19 Oeste 31 Oeste 0 -- -- --
2020-01-11 21:00:00 -- 19 Oeste 29 Oeste 0 -- -- --
2020-01-11 20:00:00 -- 17 Oeste 26 Oeste 0 -- -- --
2020-01-11 19:00:00 -- 13 Oeste 19 Oeste 0 -- -- --
2020-01-11 18:00:00 -- 11 Oeste 17 Oeste 0 -- -- --
2020-01-11 17:00:00 -- 8 Oeste 18 Oeste 0 -- -- --
2020-01-11 16:00:00 -- 8 Oeste 15 Oeste 0 -- -- --
2020-01-11 15:00:00 -- 9 Oeste 24 Oeste 0 -- -- --
2020-01-11 14:00:00 -- 17 Oeste 33 Oeste 0 -- -- --
2020-01-11 13:00:00 -- 16 Oeste 35 Oeste 0 -- -- --
2020-01-11 12:00:00 -- 19 Oeste 36 Oeste 0 -- -- --
2020-01-11 11:00:00 -- 22 Oeste 35 Oeste 0 -- -- --
2020-01-11 10:00:00 -- 22 Oeste 38 Oeste 0 -- -- --
2020-01-11 09:00:00 -- 22 Oeste 37 Oeste 0 -- -- --
2020-01-11 08:00:00 -- 24 Oeste 42 Oeste 0 -- -- --
2020-01-11 07:00:00 -- 25 Oeste 37 Oeste 0 -- -- --
2020-01-11 06:00:00 -- 23 Oeste 46 Oeste 0 -- -- --
2020-01-11 05:00:00 -- -- -- -- -- -- -- -- --
2020-01-11 04:00:00 -- -- -- -- -- -- -- -- --
2020-01-11 03:00:00 -- -- -- -- -- -- -- -- --
2020-01-11 02:00:00 -- -- -- -- -- -- -- -- --
2020-01-11 01:00:00 -- -- -- -- -- -- -- -- --
2020-01-11 00:00:00 -- -- -- -- -- -- -- -- --
2020-01-10 23:00:00 -- -- -- -- -- -- -- -- --
2020-01-10 22:00:00 -- -- -- -- -- -- -- -- --
2020-01-10 21:00:00 -- -- -- -- -- -- -- -- --
2020-01-10 20:00:00 -- -- -- -- -- -- -- -- --
2020-01-10 19:00:00 -- -- -- -- -- -- -- -- --
2020-01-10 18:00:00 -- -- -- -- -- -- -- -- --
2020-01-10 17:00:00 -- -- -- -- -- -- -- -- --
2020-01-10 16:00:00 -- -- -- -- -- -- -- -- --
2020-01-10 15:00:00 -- -- -- -- -- -- -- -- --
2020-01-10 14:00:00 -- -- -- -- -- -- -- -- --
2020-01-10 13:00:00 -- -- -- -- -- -- -- -- --
2020-01-10 12:00:00 -- -- -- -- -- -- -- -- --
2020-01-10 11:00:00 -- -- -- -- -- -- -- -- --
2020-01-10 10:00:00 -- -- -- -- -- -- -- -- --
2020-01-10 09:00:00 -- -- -- -- -- -- -- -- --
2020-01-10 08:00:00 -- -- -- -- -- -- -- -- --
2020-01-10 07:00:00 -- -- -- -- -- -- -- -- --
2020-01-10 06:00:00 -- -- -- -- -- -- -- -- --
2020-01-10 05:00:00 -- -- -- -- -- -- -- -- --
2020-01-10 04:00:00 -- -- -- -- -- -- -- -- --
2020-01-10 03:00:00 -- -- -- -- -- -- -- -- --
2020-01-10 02:00:00 -- -- -- -- -- -- -- -- --
2020-01-10 01:00:00 -- -- -- -- -- -- -- -- --
2020-01-10 00:00:00 -- -- -- -- -- -- -- -- --
2020-01-09 23:00:00 -- -- -- -- -- -- -- -- --
2020-01-09 22:00:00 -- -- -- -- -- -- -- -- --
2020-01-09 21:00:00 -- -- -- -- -- -- -- -- --
2020-01-09 20:00:00 -- -- -- -- -- -- -- -- --
2020-01-09 19:00:00 -- -- -- -- -- -- -- -- --
2020-01-09 18:00:00 -- -- -- -- -- -- -- -- --
2020-01-09 17:00:00 -- -- -- -- -- -- -- -- --
2020-01-09 16:00:00 -- -- -- -- -- -- -- -- --
2020-01-09 15:00:00 -- -- -- -- -- -- -- -- --
2020-01-09 14:00:00 -- -- -- -- -- -- -- -- --
2020-01-09 13:00:00 -- -- -- -- -- -- -- -- --
2020-01-09 12:00:00 -- -- -- -- -- -- -- -- --
2020-01-09 11:00:00 -- -- -- -- -- -- -- -- --
2020-01-09 10:00:00 -- -- -- -- -- -- -- -- --
2020-01-09 09:00:00 -- -- -- -- -- -- -- -- --
2020-01-09 08:00:00 -- -- -- -- -- -- -- -- --
2020-01-09 07:00:00 -- -- -- -- -- -- -- -- --
2020-01-09 06:00:00 -- -- -- -- -- -- -- -- --
2020-01-09 05:00:00 -- -- -- -- -- -- -- -- --
2020-01-09 04:00:00 -- -- -- -- -- -- -- -- --
2020-01-09 03:00:00 -- -- -- -- -- -- -- -- --
2020-01-09 02:00:00 -- -- -- -- -- -- -- -- --
2020-01-09 01:00:00 -- -- -- -- -- -- -- -- --
2020-01-09 00:00:00 -- -- -- -- -- -- -- -- --
2020-01-08 23:00:00 -- -- -- -- -- -- -- -- --
2020-01-08 22:00:00 -- -- -- -- -- -- -- -- --
2020-01-08 21:00:00 -- -- -- -- -- -- -- -- --
2020-01-08 20:00:00 -- -- -- -- -- -- -- -- --
2020-01-08 19:00:00 -- -- -- -- -- -- -- -- --
2020-01-08 18:00:00 -- -- -- -- -- -- -- -- --
2020-01-08 17:00:00 -- -- -- -- -- -- -- -- --
2020-01-08 16:00:00 -- -- -- -- -- -- -- -- --
2020-01-08 15:00:00 -- -- -- -- -- -- -- -- --
2020-01-08 14:00:00 -- -- -- -- -- -- -- -- --
2020-01-08 13:00:00 -- -- -- -- -- -- -- -- --
2020-01-08 12:00:00 -- -- -- -- -- -- -- -- --
2020-01-08 11:00:00 -- -- -- -- -- -- -- -- --
2020-01-08 10:00:00 -- -- -- -- -- -- -- -- --
2020-01-08 09:00:00 -- -- -- -- -- -- -- -- --
2020-01-08 08:00:00 -- -- -- -- -- -- -- -- --
2020-01-08 07:00:00 -- -- -- -- -- -- -- -- --
2020-01-08 06:00:00 -- -- -- -- -- -- -- -- --
2020-01-08 05:00:00 -- -- -- -- -- -- -- -- --
2020-01-08 04:00:00 -- -- -- -- -- -- -- -- --
2020-01-08 03:00:00 -- -- -- -- -- -- -- -- --
2020-01-08 02:00:00 -- -- -- -- -- -- -- -- --
2020-01-08 01:00:00 -- -- -- -- -- -- -- -- --
2020-01-08 00:00:00 -- -- -- -- -- -- -- -- --
2020-01-07 23:00:00 -- -- -- -- -- -- -- -- --
2020-01-07 22:00:00 -- -- -- -- -- -- -- -- --
2020-01-07 21:00:00 -- -- -- -- -- -- -- -- --
2020-01-07 20:00:00 -- -- -- -- -- -- -- -- --
2020-01-07 19:00:00 -- -- -- -- -- -- -- -- --
2020-01-07 18:00:00 -- -- -- -- -- -- -- -- --
2020-01-07 17:00:00 -- -- -- -- -- -- -- -- --
2020-01-07 16:00:00 -- -- -- -- -- -- -- -- --
2020-01-07 15:00:00 -- -- -- -- -- -- -- -- --
2020-01-07 14:00:00 -- -- -- -- -- -- -- -- --
2020-01-07 13:00:00 -- -- -- -- -- -- -- -- --
2020-01-07 12:00:00 -- -- -- -- -- -- -- -- --
2020-01-07 11:00:00 -- -- -- -- -- -- -- -- --
2020-01-07 10:00:00 -- -- -- -- -- -- -- -- --
2020-01-07 09:00:00 -- -- -- -- -- -- -- -- --
2020-01-07 08:00:00 -- -- -- -- -- -- -- -- --
2020-01-07 07:00:00 -- -- -- -- -- -- -- -- --
2020-01-07 06:00:00 -- -- -- -- -- -- -- -- --
2020-01-07 05:00:00 -- -- -- -- -- -- -- -- --
2020-01-07 04:00:00 -- -- -- -- -- -- -- -- --
2020-01-07 03:00:00 -- -- -- -- -- -- -- -- --
2020-01-07 02:00:00 -- -- -- -- -- -- -- -- --
2020-01-07 01:00:00 -- -- -- -- -- -- -- -- --
2020-01-07 00:00:00 -- -- -- -- -- -- -- -- --
2020-01-06 23:00:00 -- -- -- -- -- -- -- -- --
2020-01-06 22:00:00 -- -- -- -- -- -- -- -- --
2020-01-06 21:00:00 -- -- -- -- -- -- -- -- --
2020-01-06 20:00:00 -- -- -- -- -- -- -- -- --
2020-01-06 19:00:00 -- -- -- -- -- -- -- -- --
2020-01-06 18:00:00 -- -- -- -- -- -- -- -- --
2020-01-06 17:00:00 -- -- -- -- -- -- -- -- --
2020-01-06 16:00:00 -- -- -- -- -- -- -- -- --
2020-01-06 15:00:00 -- -- -- -- -- -- -- -- --
2020-01-06 14:00:00 -- -- -- -- -- -- -- -- --
2020-01-06 13:00:00 -- -- -- -- -- -- -- -- --
2020-01-06 12:00:00 -- -- -- -- -- -- -- -- --
2020-01-06 11:00:00 -- -- -- -- -- -- -- -- --
2020-01-06 10:00:00 -- -- -- -- -- -- -- -- --